Terminal Aerodrome Forecast
Issued by NWS Wilmington, OH

Current Version | Previous Version | Graphics & Text | Print | Product List | Glossary On
Versions: 1 2 3 4 5 6 7 8 9 10 11 12 13 14 15 16 17 18 19 20 21 22 23 24 25
000
FTUS41 KILN 180900 AAA
TAFILN
TAF AMD
KILN 180932Z 1810/1906 06004KT 3SM BR VCSH OVC025
     FM181000 06004KT 2SM BR OVC015
      TEMPO 1810/1813 1SM BR
     FM181400 05004KT 4SM BR OVC007
     FM181500 05005KT 4SM HZ OVC015
     FM181800 VRB04KT 6SM HZ VCSH BKN035
     FM182100 03005KT P6SM BKN100
     FM190500 VRB03KT P6SM BKN250=

USA.gov is the U.S. government's official web portal to all federal, state and local government web resources and services.